Time;durP1;ratioP1;P1;durP2;ratioP2;P2;SDS_P1;SDS_P2;PMS_P1;PMS_P2;Temp;Humidity;BMP_temperature;BMP_pressure;BME280_temperature;BME280_humidity;BME280_pressure;Samples;Min_cycle;Max_cycle;Signal;HPM_P1;HPM_P2
2023/05/17 00:02:05;;;;;;;3.13;1.48;;;;;;;3.94;100.00;99224.88;5026220;28;20130;-60
2023/05/17 00:04:32;;;;;;;2.90;1.45;;;;;;;3.92;100.00;99224.16;5040451;28;20032;-60
2023/05/17 00:06:57;;;;;;;5.38;1.77;;;;;;;3.95;100.00;99222.03;5040406;28;20112;-61
2023/05/17 00:09:22;;;;;;;5.60;1.90;;;;;;;4.04;100.00;99217.63;5032861;28;20117;-60
2023/05/17 00:11:48;;;;;;;3.90;1.30;;;;;;;3.93;100.00;99217.84;5028847;28;20091;-61
2023/05/17 00:14:13;;;;;;;5.97;1.48;;;;;;;3.94;100.00;99220.34;5038788;28;20025;-60
2023/05/17 00:16:38;;;;;;;2.65;1.38;;;;;;;3.90;100.00;99221.66;5038924;28;20059;-60
2023/05/17 00:19:04;;;;;;;9.73;1.58;;;;;;;3.95;100.00;99230.06;5031714;28;20064;-61
2023/05/17 00:21:30;;;;;;;4.75;1.50;;;;;;;3.89;100.00;99221.78;5033474;28;20071;-60
2023/05/17 00:23:55;;;;;;;6.15;1.20;;;;;;;3.89;100.00;99224.47;5031559;28;20035;-60
2023/05/17 00:26:21;;;;;;;3.97;1.33;;;;;;;3.76;100.00;99232.84;5036008;28;20040;-65
2023/05/17 00:28:46;;;;;;;5.43;1.50;;;;;;;3.71;100.00;99232.47;5041876;28;20033;-61
2023/05/17 00:31:11;;;;;;;2.75;1.40;;;;;;;3.67;100.00;99242.63;5040156;28;20040;-60
2023/05/17 00:33:37;;;;;;;4.22;1.63;;;;;;;3.66;100.00;99235.56;5031919;28;20048;-60
2023/05/17 00:36:02;;;;;;;2.42;1.13;;;;;;;3.63;100.00;99233.19;5037239;28;20029;-60
2023/05/17 00:38:28;;;;;;;5.30;1.52;;;;;;;3.77;100.00;99242.56;5032245;28;20228;-60
2023/05/17 00:40:53;;;;;;;2.83;1.13;;;;;;;3.77;100.00;99237.19;5025594;28;20461;-60
2023/05/17 00:43:18;;;;;;;3.90;1.33;;;;;;;3.73;100.00;99239.34;5034063;28;20047;-60
2023/05/17 00:45:44;;;;;;;2.95;1.33;;;;;;;3.67;100.00;99239.13;5043867;28;20029;-60
2023/05/17 00:48:10;;;;;;;4.35;1.48;;;;;;;3.63;100.00;99243.91;5034761;28;20544;-60
2023/05/17 00:50:36;;;;;;;8.80;1.77;;;;;;;3.65;100.00;99249.94;5030776;28;20067;-60
2023/05/17 00:53:01;;;;;;;2.15;1.40;;;;;;;3.64;100.00;99245.59;5037588;28;20033;-60
2023/05/17 00:55:27;;;;;;;6.88;1.40;;;;;;;3.59;100.00;99244.34;5044103;28;20092;-63
2023/05/17 00:57:53;;;;;;;4.05;1.48;;;;;;;3.59;100.00;99237.19;5030499;28;20076;-60
2023/05/17 01:00:18;;;;;;;6.68;2.08;;;;;;;3.74;100.00;99241.00;5054560;22;20029;-79
2023/05/17 01:02:47;;;;;;;3.00;1.38;;;;;;;3.77;100.00;99249.75;5026126;28;20034;-79
2023/05/17 01:05:12;;;;;;;5.30;1.73;;;;;;;3.68;100.00;99243.47;5026449;28;20112;-79
2023/05/17 01:07:37;;;;;;;1.67;1.20;;;;;;;3.53;100.00;99227.03;5031444;28;20356;-79
2023/05/17 01:10:04;;;;;;;5.20;1.67;;;;;;;3.59;100.00;99233.63;5033675;28;20018;-80
2023/05/17 01:13:01;;;;;;;5.13;1.85;;;;;;;3.74;100.00;99253.56;5025229;28;20033;-80
2023/05/17 01:15:31;;;;;;;4.05;1.85;;;;;;;3.80;100.00;99246.75;5028899;28;20029;-77
2023/05/17 01:18:03;;;;;;;4.28;1.70;;;;;;;3.79;100.00;99256.63;5037569;28;20519;-79
2023/05/17 01:20:41;;;;;;;2.50;1.65;;;;;;;3.74;100.00;99254.41;5042233;28;20033;-79
2023/05/17 01:23:40;;;;;;;3.17;2.17;;;;;;;3.77;100.00;99260.44;5036430;28;20040;-79
2023/05/17 01:26:09;;;;;;;;;;;;;;;3.77;100.00;99257.78;5036497;28;20770;-78
2023/05/17 01:28:37;;;;;;;4.15;1.42;;;;;;;3.72;100.00;99256.41;5031566;28;19956;-78
2023/05/17 01:31:04;;;;;;;11.63;2.10;;;;;;;3.76;100.00;99253.44;5034874;28;20025;-78
2023/05/17 01:33:30;;;;;;;5.53;1.80;;;;;;;3.68;100.00;99238.09;5034641;28;20037;-78
2023/05/17 01:35:55;;;;;;;3.28;1.60;;;;;;;3.69;100.00;99246.00;5042709;28;20029;-78
2023/05/17 01:38:21;;;;;;;5.85;1.90;;;;;;;3.78;100.00;99264.84;5032069;28;20418;-78
2023/05/17 01:41:03;;;;;;;2.35;1.40;;;;;;;3.75;100.00;99252.59;5032555;28;20088;-78
2023/05/17 01:43:50;;;;;;;2.50;1.50;;;;;;;3.80;100.00;99269.03;5059163;28;20040;-79
2023/05/17 01:46:35;;;;;;;8.43;1.67;;;;;;;3.77;100.00;99261.28;5056046;28;20033;-79
2023/05/17 01:49:29;;;;;;;7.10;1.77;;;;;;;3.76;100.00;99262.28;5063268;28;20060;-79
2023/05/17 01:52:02;;;;;;;5.82;1.85;;;;;;;3.77;100.00;99263.13;5047730;28;20386;-81
2023/05/17 01:54:35;;;;;;;3.65;1.65;;;;;;;3.81;100.00;99259.19;5056648;28;20074;-78
2023/05/17 01:57:05;;;;;;;3.03;1.50;;;;;;;3.71;100.00;99238.66;5045745;28;20033;-78
2023/05/17 01:59:30;;;;;;;;;;;;;;;3.96;100.00;99271.06;5028829;28;20659;-78
2023/05/17 02:02:07;;;;;;;3.67;1.55;;;;;;;3.94;100.00;99260.50;5025422;28;19912;-78
2023/05/17 02:04:34;;;;;;;4.03;2.13;;;;;;;3.89;100.00;99252.06;5037452;28;20482;-78
2023/05/17 02:06:59;;;;;;;3.63;1.63;;;;;;;3.73;100.00;99236.66;5043153;28;20501;-77
2023/05/17 02:09:24;;;;;;;3.58;1.33;;;;;;;3.91;100.00;99255.44;5051271;28;20104;-78
2023/05/17 02:11:50;;;;;;;5.32;2.35;;;;;;;3.77;100.00;99231.00;5040800;28;20037;-77
2023/05/17 02:14:15;;;;;;;5.70;1.70;;;;;;;3.91;100.00;99251.94;5035661;28;20115;-77
2023/05/17 02:16:40;;;;;;;6.40;1.35;;;;;;;4.00;100.00;99280.47;5033372;28;20506;-78
2023/05/17 02:19:07;;;;;;;6.90;1.30;;;;;;;4.03;100.00;99280.16;5033207;28;20013;-78
2023/05/17 02:21:33;;;;;;;3.05;1.40;;;;;;;3.96;100.00;99271.06;5041690;28;20037;-79
2023/05/17 02:23:59;;;;;;;2.13;1.20;;;;;;;3.99;100.00;99254.69;5030896;28;20130;-77
2023/05/17 02:26:24;;;;;;;8.73;1.00;;;;;;;4.00;100.00;99269.75;5029093;28;20117;-78
2023/05/17 02:28:49;;;;;;;2.72;0.80;;;;;;;3.91;100.00;99262.66;5033074;28;20419;-78
2023/05/17 02:31:14;;;;;;;1.20;0.73;;;;;;;4.00;100.00;99279.63;5049864;28;20036;-79
2023/05/17 02:33:40;;;;;;;1.15;0.90;;;;;;;3.89;100.00;99248.56;5058158;28;20037;-79
2023/05/17 02:36:05;;;;;;;4.63;1.00;;;;;;;3.99;100.00;99265.41;5051916;28;20395;-80
2023/05/17 02:38:31;;;;;;;6.55;1.20;;;;;;;3.97;100.00;99270.06;5053527;28;20028;-81
2023/05/17 02:40:56;;;;;;;4.50;1.10;;;;;;;3.96;100.00;99273.75;5059691;28;20014;-80
2023/05/17 02:43:21;;;;;;;1.50;1.00;;;;;;;3.87;100.00;99258.56;5058005;28;20033;-78
2023/05/17 02:45:47;;;;;;;2.47;1.05;;;;;;;3.93;100.00;99266.84;5058953;28;20100;-79
2023/05/17 02:48:12;;;;;;;2.75;1.52;;;;;;;4.02;100.00;99278.50;5057506;28;20093;-81
2023/05/17 02:50:38;;;;;;;4.97;1.92;;;;;;;3.70;100.00;99231.63;5045442;28;20021;-79
2023/05/17 02:53:03;;;;;;;2.67;1.58;;;;;;;3.86;100.00;99267.59;5039148;28;20040;-78
2023/05/17 02:55:29;;;;;;;5.60;1.73;;;;;;;3.65;100.00;99247.28;5031535;28;20037;-78
2023/05/17 02:57:54;;;;;;;4.47;1.70;;;;;;;3.68;100.00;99275.56;5032330;28;20116;-80
2023/05/17 03:00:19;;;;;;;6.60;1.42;;;;;;;3.52;100.00;99244.09;5048062;28;20064;-78
2023/05/17 03:02:45;;;;;;;4.03;1.50;;;;;;;3.69;100.00;99282.59;5030693;28;20025;-78
2023/05/17 03:05:10;;;;;;;7.50;1.60;;;;;;;3.50;100.00;99272.81;5032593;28;20064;-79
2023/05/17 03:07:35;;;;;;;3.28;1.50;;;;;;;3.56;100.00;99282.94;5037671;28;20394;-78
2023/05/17 03:10:01;;;;;;;4.13;1.67;;;;;;;3.60;100.00;99299.56;5040650;28;20079;-78
2023/05/17 03:12:26;;;;;;;3.72;1.98;;;;;;;3.27;100.00;99246.47;5024253;28;20018;-78
2023/05/17 03:14:51;;;;;;;6.50;1.90;;;;;;;3.51;100.00;99293.22;5039984;28;20399;-78
2023/05/17 03:17:16;;;;;;;3.72;1.65;;;;;;;3.43;100.00;99277.06;5038256;28;20021;-79
2023/05/17 03:19:42;;;;;;;6.57;1.83;;;;;;;3.43;100.00;99279.75;5036825;28;20502;-79
2023/05/17 03:22:07;;;;;;;5.65;1.52;;;;;;;3.49;100.00;99308.59;5038893;28;20104;-79
2023/05/17 03:24:32;;;;;;;6.47;1.70;;;;;;;3.25;100.00;99261.81;5038592;28;20025;-78
2023/05/17 03:26:57;;;;;;;6.10;1.65;;;;;;;3.49;100.00;99308.59;5029706;28;20033;-78
2023/05/17 03:29:23;;;;;;;7.53;1.63;;;;;;;3.27;100.00;99270.53;5047330;28;20445;-78
2023/05/17 03:31:48;;;;;;;3.88;1.83;;;;;;;3.49;100.00;99297.91;5037987;28;20025;-78
2023/05/17 03:34:13;;;;;;;1.60;1.10;;;;;;;3.58;100.00;99302.34;5031403;28;20037;-79
2023/05/17 03:36:39;;;;;;;2.75;1.00;;;;;;;3.59;100.00;99287.13;5031210;28;20112;-80
2023/05/17 03:39:04;;;;;;;3.63;1.35;;;;;;;3.51;100.00;99293.22;5029419;28;20048;-77
2023/05/17 03:41:31;;;;;;;5.65;1.30;;;;;;;3.68;100.00;99308.53;5039715;28;20025;-76
2023/05/17 03:43:56;;;;;;;3.00;1.55;;;;;;;3.72;100.00;99314.41;5033338;28;20068;-78
2023/05/17 03:46:22;;;;;;;8.05;1.15;;;;;;;3.64;100.00;99303.59;5032443;28;20021;-78
2023/05/17 03:48:47;;;;;;;2.45;0.98;;;;;;;3.63;100.00;99305.44;5026731;28;20022;-78
2023/05/17 03:51:12;;;;;;;1.77;1.00;;;;;;;3.68;100.00;99302.31;5029991;28;20108;-76
2023/05/17 03:53:41;;;;;;;3.90;1.30;;;;;;;3.85;100.00;99314.06;5030183;28;20017;-77
2023/05/17 03:56:07;;;;;;;4.60;1.35;;;;;;;3.74;100.00;99294.53;5039557;28;20494;-79
2023/05/17 03:58:32;;;;;;;7.47;1.42;;;;;;;4.10;100.00;99333.97;5032550;28;20029;-85
2023/05/17 04:00:58;;;;;;;3.88;0.98;;;;;;;3.89;100.00;99288.72;5044650;28;20033;-77
2023/05/17 04:03:23;;;;;;;4.63;1.35;;;;;;;4.05;100.00;99314.84;5032478;28;20021;-77
2023/05/17 04:05:49;;;;;;;2.25;0.98;;;;;;;4.13;100.00;99315.75;5034701;28;20478;-78
2023/05/17 04:08:15;;;;;;;2.20;1.10;;;;;;;4.26;100.00;99327.97;5037426;28;20087;-80
2023/05/17 04:10:41;;;;;;;4.25;1.13;;;;;;;4.29;100.00;99317.78;5043936;28;20387;-81
2023/05/17 04:13:08;;;;;;;5.68;1.10;;;;;;;4.36;100.00;99323.41;5044821;28;20018;-81
2023/05/17 04:15:34;;;;;;;5.00;1.13;;;;;;;4.48;100.00;99343.63;5029398;28;20059;-81
2023/05/17 04:17:59;;;;;;;3.95;0.93;;;;;;;4.60;100.00;99341.56;5047346;28;20021;-83
2023/05/17 04:20:25;;;;;;;5.20;1.17;;;;;;;4.50;100.00;99333.59;5037130;28;20468;-77
2023/05/17 04:22:50;;;;;;;2.33;1.10;;;;;;;4.49;100.00;99318.50;5035896;28;20467;-83
2023/05/17 04:25:17;;;;;;;3.78;0.98;;;;;;;4.47;100.00;99320.50;5038370;28;20037;-81
2023/05/17 04:27:42;;;;;;;6.68;1.25;;;;;;;4.66;100.00;99332.91;5036477;28;20113;-82
2023/05/17 04:30:08;;;;;;;4.20;1.20;;;;;;;4.77;100.00;99337.22;5042432;28;20044;-84
2023/05/17 04:32:34;;;;;;;3.63;1.20;;;;;;;4.79;100.00;99325.34;5044319;28;20025;-84
2023/05/17 04:35:00;;;;;;;5.95;1.50;;;;;;;5.05;100.00;99346.84;5037490;28;20079;-84
2023/05/17 04:37:25;;;;;;;6.22;1.40;;;;;;;5.18;100.00;99348.28;5038081;28;20038;-87
2023/05/17 04:39:51;;;;;;;7.30;1.33;;;;;;;5.05;100.00;99295.88;5031669;28;20037;-79
2023/05/17 04:42:17;;;;;;;5.53;1.10;;;;;;;5.39;100.00;99318.44;5037439;28;20036;-79
2023/05/17 04:44:42;;;;;;;2.33;1.15;;;;;;;5.80;100.00;99341.00;5032402;28;20026;-75
2023/05/17 04:47:08;;;;;;;3.25;0.95;;;;;;;6.15;100.00;99357.97;5039225;28;20107;-69
2023/05/17 04:49:33;;;;;;;5.55;1.05;;;;;;;6.34;100.00;99354.19;5051449;28;20013;-85
2023/05/17 04:51:59;;;;;;;7.53;1.13;;;;;;;6.48;100.00;99356.25;5066729;28;20021;-81
2023/05/17 04:54:25;;;;;;;6.03;1.15;;;;;;;6.73;100.00;99356.31;5045623;28;20064;-82
2023/05/17 04:56:50;;;;;;;7.72;1.33;;;;;;;7.02;100.00;99353.16;5040729;28;20406;-85
2023/05/17 04:59:15;;;;;;;2.92;0.95;;;;;;;7.19;100.00;99348.63;5035198;28;20025;-81
2023/05/17 05:01:41;;;;;;;3.58;1.27;;;;;;;6.97;100.00;99272.13;5036657;28;20034;-85
2023/05/17 05:04:06;;;;;;;4.10;0.93;;;;;;;7.54;100.00;99333.94;5046370;28;20032;-74
2023/05/17 05:06:33;;;;;;;4.75;0.77;;;;;;;7.68;100.00;99344.03;5035184;28;20032;-71
2023/05/17 05:09:00;;;;;;;5.57;0.80;;;;;;;8.06;100.00;99365.81;5031796;28;20087;-73
2023/05/17 05:11:25;;;;;;;5.93;0.93;;;;;;;8.23;100.00;99357.69;5041935;28;20022;-74
2023/05/17 05:13:50;;;;;;;8.30;1.58;;;;;;;8.40;100.00;99355.78;5032012;28;20052;-74
2023/05/17 05:16:15;;;;;;;2.80;1.58;;;;;;;8.08;100.00;99339.53;5031412;28;20041;-73
2023/05/17 05:18:41;;;;;;;4.63;1.75;;;;;;;8.15;100.00;99355.00;5035230;28;20128;-75
2023/05/17 05:21:06;;;;;;;4.88;1.55;;;;;;;8.19;100.00;99367.97;5032724;28;20021;-72
2023/05/17 05:23:31;;;;;;;5.78;1.80;;;;;;;8.01;100.00;99360.09;5031290;28;20999;-74
2023/05/17 05:25:56;;;;;;;2.45;1.58;;;;;;;8.19;100.00;99367.13;5043122;28;20052;-79
2023/05/17 05:28:22;;;;;;;3.53;1.30;;;;;;;8.26;100.00;99368.13;5039603;28;20108;-75
2023/05/17 05:30:47;;;;;;;3.72;1.38;;;;;;;8.45;100.00;99373.13;5032575;28;20032;-72
2023/05/17 05:33:12;;;;;;;2.70;1.20;;;;;;;8.49;100.00;99373.63;5031922;28;20077;-74
2023/05/17 05:35:38;;;;;;;4.43;1.27;;;;;;;8.47;100.00;99375.66;5034459;28;20030;-75
2023/05/17 05:38:03;;;;;;;3.17;1.00;;;;;;;8.64;100.00;99376.41;5031573;28;20038;-74
2023/05/17 05:40:29;;;;;;;3.38;1.17;;;;;;;8.75;100.00;99382.25;5033973;28;20183;-74
2023/05/17 05:42:55;;;;;;;10.82;1.25;;;;;;;8.94;100.00;99370.16;5029263;28;20030;-75
2023/05/17 05:45:20;;;;;;;3.10;1.08;;;;;;;9.20;100.00;99388.69;5029676;28;20044;-74
2023/05/17 05:47:45;;;;;;;5.90;1.33;;;;;;;9.26;100.00;99387.13;5032791;28;20025;-74
2023/05/17 05:50:11;;;;;;;7.05;1.13;;;;;;;9.51;100.00;99395.03;5031630;28;20021;-80
2023/05/17 05:52:36;;;;;;;5.35;1.33;;;;;;;9.63;100.00;99396.28;5037170;28;20394;-80
2023/05/17 05:55:02;;;;;;;3.92;1.40;;;;;;;9.70;100.00;99375.63;5040393;28;20036;-81
2023/05/17 05:57:27;;;;;;;4.90;1.40;;;;;;;9.84;100.00;99380.19;5030776;28;20112;-81
2023/05/17 05:59:53;;;;;;;2.75;1.25;;;;;;;9.79;100.00;99385.31;5040539;28;20100;-82
2023/05/17 06:02:18;;;;;;;3.65;1.38;;;;;;;9.84;100.00;99347.75;5036810;28;20160;-82
2023/05/17 06:04:46;;;;;;;6.95;1.73;;;;;;;10.31;100.00;99384.44;5044083;28;20036;-74
2023/05/17 06:07:12;;;;;;;7.50;1.23;;;;;;;10.67;100.00;99382.81;5030857;28;20029;-77
2023/05/17 06:09:37;;;;;;;4.65;1.55;;;;;;;10.94;100.00;99392.91;5019039;28;20394;-78
2023/05/17 06:12:03;;;;;;;6.07;1.42;;;;;;;11.25;100.00;99380.09;5035287;28;20032;-84
2023/05/17 06:14:28;;;;;;;3.72;1.20;;;;;;;11.63;100.00;99399.63;5041848;28;20028;-81
2023/05/17 06:16:53;;;;;;;9.65;1.90;;;;;;;11.92;100.00;99393.22;5042752;28;20025;-82
2023/05/17 06:19:19;;;;;;;7.68;1.52;;;;;;;12.26;100.00;99403.25;5045427;28;20494;-81
2023/05/17 06:21:44;;;;;;;6.97;2.33;;;;;;;12.25;100.00;99406.16;5039329;28;20031;-85
2023/05/17 06:24:09;;;;;;;7.25;1.63;;;;;;;12.60;100.00;99398.84;5037283;28;20100;-78
2023/05/17 06:26:35;;;;;;;9.23;1.40;;;;;;;13.41;100.00;99399.94;5031141;28;20104;-74
2023/05/17 06:29:00;;;;;;;6.60;1.48;;;;;;;14.47;100.00;99388.97;5031507;28;20036;-73
2023/05/17 06:31:25;;;;;;;5.72;1.40;;;;;;;17.36;93.68;99404.34;5034342;28;20026;-81
2023/05/17 06:33:51;;;;;;;6.90;1.30;;;;;;;19.28;78.20;99408.22;5041528;28;20447;-82
2023/05/17 06:36:16;;;;;;;5.68;1.65;;;;;;;20.97;67.17;99414.47;5033448;28;20035;-73
2023/05/17 06:38:41;;;;;;;5.90;1.52;;;;;;;21.70;61.35;99418.88;5030842;28;20081;-71
2023/05/17 06:41:06;;;;;;;4.70;1.40;;;;;;;22.61;56.71;99417.91;5021378;28;20029;-72
2023/05/17 06:43:32;;;;;;;7.07;1.52;;;;;;;22.93;53.83;99426.06;5025874;28;20434;-72
2023/05/17 06:45:58;;;;;;;5.45;1.70;;;;;;;23.75;49.74;99407.00;5029031;28;20059;-72
2023/05/17 06:48:23;;;;;;;5.32;1.63;;;;;;;23.59;48.86;99409.72;5028694;28;20147;-73
2023/05/17 06:50:49;;;;;;;9.27;1.88;;;;;;;24.69;47.89;99415.78;5029209;28;20055;-74
2023/05/17 06:53:14;;;;;;;5.40;1.80;;;;;;;24.80;45.49;99405.50;5031644;28;20021;-73
2023/05/17 06:55:40;;;;;;;7.38;2.10;;;;;;;25.16;44.58;99411.72;5030112;28;20471;-73
2023/05/17 06:58:05;;;;;;;5.18;1.50;;;;;;;26.67;43.35;99406.38;5040030;28;20026;-74
2023/05/17 07:00:31;;;;;;;4.78;1.75;;;;;;;27.35;41.94;99412.78;5030730;28;20061;-71
2023/05/17 07:02:56;;;;;;;4.43;1.80;;;;;;;27.92;41.14;99405.25;5031506;28;20140;-71
2023/05/17 07:05:22;;;;;;;5.97;2.08;;;;;;;27.09;40.57;99416.72;5025719;28;20108;-71
2023/05/17 07:07:48;;;;;;;5.57;1.70;;;;;;;28.38;39.01;99402.50;5033154;28;20036;-71
2023/05/17 07:10:13;;;;;;;5.90;1.70;;;;;;;29.15;38.94;99408.56;5027841;28;20391;-71
2023/05/17 07:12:39;;;;;;;4.07;1.70;;;;;;;30.22;37.55;99406.00;5030726;28;20029;-72
2023/05/17 07:15:05;;;;;;;3.83;1.67;;;;;;;29.74;37.21;99412.25;5032411;28;20031;-71
2023/05/17 07:17:30;;;;;;;4.72;1.70;;;;;;;31.43;35.91;99410.47;5036732;28;20021;-71
2023/05/17 07:19:55;;;;;;;9.85;1.70;;;;;;;31.33;34.73;99419.13;5025765;28;20052;-70
2023/05/17 07:22:20;;;;;;;8.20;2.17;;;;;;;31.23;35.18;99412.72;5030465;28;20025;-71
2023/05/17 07:24:46;;;;;;;6.40;2.20;;;;;;;30.30;34.55;99416.44;5023479;28;20401;-72
2023/05/17 07:27:12;;;;;;;10.52;1.88;;;;;;;30.77;35.55;99414.03;5039178;28;20029;-71
2023/05/17 07:29:37;;;;;;;11.27;2.00;;;;;;;29.18;36.56;99413.50;5030163;28;20029;-72
2023/05/17 07:32:02;;;;;;;3.63;1.70;;;;;;;30.45;35.09;99417.19;5029933;28;20449;-72
2023/05/17 07:34:29;;;;;;;5.93;2.25;;;;;;;30.17;35.05;99422.88;5026663;28;20119;-72
2023/05/17 07:36:54;;;;;;;4.13;1.70;;;;;;;30.46;34.93;99416.03;5027135;28;21173;-73
2023/05/17 07:39:20;;;;;;;8.10;1.80;;;;;;;29.68;34.98;99411.56;5038321;28;20029;-75
2023/05/17 07:41:45;;;;;;;5.95;2.38;;;;;;;29.04;35.90;99411.56;5044171;28;20036;-77
2023/05/17 07:44:10;;;;;;;5.15;1.75;;;;;;;29.30;35.36;99411.00;5047135;28;20033;-75
2023/05/17 07:46:36;;;;;;;4.93;1.93;;;;;;;28.52;36.79;99424.81;5039743;28;20117;-76
2023/05/17 07:49:01;;;;;;;5.20;2.00;;;;;;;26.83;36.89;99430.09;5041302;28;20366;-75
2023/05/17 07:51:26;;;;;;;4.05;1.92;;;;;;;25.10;39.83;99440.53;5035085;28;20479;-76
2023/05/17 07:53:51;;;;;;;6.72;1.95;;;;;;;26.77;38.51;99419.31;5030515;28;20463;-75
2023/05/17 07:56:17;;;;;;;4.75;1.70;;;;;;;27.15;38.99;99436.09;5028603;28;20112;-77
2023/05/17 07:58:42;;;;;;;5.45;1.90;;;;;;;26.87;38.54;99420.03;5023683;28;20026;-73
2023/05/17 08:01:08;;;;;;;4.50;2.00;;;;;;;27.46;38.16;99415.13;5036582;28;20030;-75
2023/05/17 08:03:34;;;;;;;3.55;1.73;;;;;;;27.90;37.48;99402.81;5043559;28;20097;-78
2023/05/17 08:05:59;;;;;;;4.13;1.95;;;;;;;25.03;40.58;99415.09;5036784;28;20470;-80
2023/05/17 08:08:25;;;;;;;4.25;1.85;;;;;;;25.92;40.68;99404.06;5035704;28;20344;-78
2023/05/17 08:10:50;;;;;;;4.30;1.73;;;;;;;25.25;40.79;99406.41;5040317;28;20402;-70
2023/05/17 08:13:15;;;;;;;3.85;1.83;;;;;;;25.06;41.07;99407.03;5033505;28;20402;-77
2023/05/17 08:15:41;;;;;;;11.88;2.85;;;;;;;24.58;42.92;99405.84;5033126;28;20021;-74
2023/05/17 08:18:06;;;;;;;11.48;2.20;;;;;;;22.44;46.13;99418.09;5043078;28;20828;-76
2023/05/17 08:20:31;;;;;;;5.00;2.00;;;;;;;23.23;44.88;99419.03;5034838;28;20029;-76
2023/05/17 08:22:57;;;;;;;7.00;1.80;;;;;;;24.24;42.86;99414.72;5033417;28;20018;-67
2023/05/17 08:25:22;;;;;;;6.35;1.77;;;;;;;24.10;43.44;99421.91;5033904;28;20461;-79
2023/05/17 08:27:47;;;;;;;5.13;1.85;;;;;;;23.81;43.34;99420.53;5033756;28;20018;-76
2023/05/17 08:30:13;;;;;;;21.95;2.97;;;;;;;25.42;40.30;99423.50;5030946;28;20034;-73
2023/05/17 08:32:38;;;;;;;8.05;2.63;;;;;;;27.47;38.51;99429.84;5029612;28;20032;-74
2023/05/17 08:35:04;;;;;;;4.72;2.00;;;;;;;27.60;37.63;99414.38;5038112;28;20056;-74
2023/05/17 08:37:29;;;;;;;5.60;2.25;;;;;;;25.17;40.26;99427.22;5044104;28;20112;-74
2023/05/17 08:39:55;;;;;;;7.65;2.13;;;;;;;23.88;42.93;99434.09;5029158;28;20025;-73
2023/05/17 08:42:26;;;;;;;6.30;2.08;;;;;;;23.32;44.16;99412.72;5032808;28;20120;-73
2023/05/17 08:44:53;;;;;;;4.88;1.98;;;;;;;21.62;45.20;99432.00;5034565;28;20104;-73
2023/05/17 08:47:28;;;;;;;5.90;2.05;;;;;;;22.04;44.43;99428.53;5038932;28;20029;-76
2023/05/17 08:49:56;;;;;;;8.20;1.95;;;;;;;22.64;43.75;99431.19;5035835;28;20033;-76
2023/05/17 08:52:21;;;;;;;5.88;2.05;;;;;;;21.54;45.29;99413.22;5042605;28;20519;-77
2023/05/17 08:54:47;;;;;;;7.88;2.30;;;;;;;21.38;44.41;99419.66;5029976;28;20060;-76
2023/05/17 08:57:15;;;;;;;6.20;2.03;;;;;;;21.96;44.19;99429.00;5036652;28;20025;-75
2023/05/17 08:59:40;;;;;;;5.60;1.80;;;;;;;22.04;43.54;99423.00;5032055;28;20030;-77
2023/05/17 09:02:07;;;;;;;5.40;1.90;;;;;;;23.37;41.96;99398.91;5035197;28;20021;-74
2023/05/17 09:04:32;;;;;;;6.70;2.10;;;;;;;23.53;41.71;99421.03;5031949;28;20083;-71
2023/05/17 09:06:58;;;;;;;5.10;1.90;;;;;;;24.30;41.43;99424.66;5042054;28;20021;-74
2023/05/17 09:09:25;;;;;;;6.78;2.30;;;;;;;24.27;40.73;99405.88;5034125;28;20037;-78
2023/05/17 09:11:50;;;;;;;6.25;2.10;;;;;;;23.00;41.13;99389.97;5032325;28;20081;-77
2023/05/17 09:14:16;;;;;;;3.58;1.98;;;;;;;21.94;42.30;99413.84;5038842;28;20112;-73
2023/05/17 09:16:42;;;;;;;6.28;2.47;;;;;;;20.96;43.47;99417.50;5040010;28;20395;-73
2023/05/17 09:19:13;;;;;;;4.78;2.08;;;;;;;20.41;45.33;99426.59;5033086;28;20437;-75
2023/05/17 09:21:39;;;;;;;7.38;2.25;;;;;;;19.88;46.29;99409.59;5032082;28;20391;-75
2023/05/17 09:24:05;;;;;;;6.65;1.95;;;;;;;19.33;46.94;99419.28;5046056;28;20021;-78
2023/05/17 09:26:41;;;;;;;6.65;2.30;;;;;;;20.19;48.32;99408.16;5041164;28;20049;-73
2023/05/17 09:29:08;;;;;;;10.40;2.42;;;;;;;20.57;46.11;99414.78;5037053;28;20491;-76
2023/05/17 09:31:34;;;;;;;5.57;2.10;;;;;;;21.42;46.33;99413.34;5032582;28;20021;-75
2023/05/17 09:34:01;;;;;;;4.10;1.80;;;;;;;22.75;43.61;99427.38;5037985;28;20559;-71
2023/05/17 09:36:26;;;;;;;4.78;1.85;;;;;;;22.44;43.97;99423.59;5033726;28;20107;-76
2023/05/17 09:38:52;;;;;;;6.53;2.30;;;;;;;21.72;45.37;99433.19;5033685;28;20073;-75
2023/05/17 09:41:18;;;;;;;5.88;2.60;;;;;;;20.08;46.63;99425.56;5027147;28;20106;-70
2023/05/17 09:43:43;;;;;;;4.38;2.10;;;;;;;19.24;49.12;99448.22;5049619;28;20467;-72
2023/05/17 09:46:09;;;;;;;6.68;2.33;;;;;;;18.76;50.34;99433.81;5027750;28;20025;-73
2023/05/17 09:48:37;;;;;;;5.93;2.30;;;;;;;18.77;50.89;99427.22;5023936;28;20487;-73
2023/05/17 09:51:04;;;;;;;4.32;2.03;;;;;;;18.98;51.43;99430.41;5020571;28;20030;-73
2023/05/17 09:53:38;;;;;;;4.03;1.85;;;;;;;18.90;52.02;99431.63;5058437;28;20061;-73
2023/05/17 09:56:05;;;;;;;6.07;2.00;;;;;;;19.07;51.58;99428.09;5029342;28;20122;-73
2023/05/17 09:58:32;;;;;;;6.45;2.20;;;;;;;19.24;51.61;99443.53;5030515;28;20033;-73
2023/05/17 10:01:00;;;;;;;4.85;2.08;;;;;;;19.27;52.01;99440.31;5027367;28;20022;-72
2023/05/17 10:03:32;;;;;;;5.47;2.05;;;;;;;19.30;52.52;99430.75;5035213;28;20022;-72
2023/05/17 10:06:01;;;;;;;5.43;2.20;;;;;;;20.28;51.39;99438.81;5031422;28;20021;-73
2023/05/17 10:08:28;;;;;;;4.13;2.00;;;;;;;19.37;50.06;99411.41;5029211;28;20028;-81
2023/05/17 10:10:57;;;;;;;5.72;1.80;;;;;;;19.76;51.18;99450.03;5026461;28;20033;-77
2023/05/17 10:13:29;;;;;;;5.50;2.13;;;;;;;19.35;52.37;99430.03;5046736;28;20021;-73
2023/05/17 10:15:54;;;;;;;5.05;1.90;;;;;;;18.96;52.41;99449.81;5031087;28;20030;-74
2023/05/17 10:18:21;;;;;;;4.75;1.88;;;;;;;18.41;53.62;99458.44;5030533;28;20099;-73
2023/05/17 10:20:46;;;;;;;4.93;2.05;;;;;;;18.13;56.17;99454.53;5038647;28;20584;-76
2023/05/17 10:23:13;;;;;;;7.10;2.10;;;;;;;17.87;57.06;99457.72;5050245;28;20116;-77
2023/05/17 10:25:39;;;;;;;5.22;2.30;;;;;;;17.44;57.56;99456.81;5036178;28;20026;-75
2023/05/17 10:28:06;;;;;;;4.75;1.98;;;;;;;17.07;59.89;99464.25;5055730;28;20037;-83
2023/05/17 10:30:33;;;;;;;4.05;1.83;;;;;;;16.78;60.02;99442.09;5036462;28;20021;-70
2023/05/17 10:32:59;;;;;;;5.35;1.80;;;;;;;16.90;59.76;99463.19;5030648;28;20017;-71
2023/05/17 10:35:26;;;;;;;4.28;2.10;;;;;;;17.18;61.42;99446.25;5026010;28;20037;-71
2023/05/17 10:37:52;;;;;;;5.60;2.03;;;;;;;16.87;60.86;99453.56;5049804;28;20064;-71
2023/05/17 10:40:19;;;;;;;9.43;2.05;;;;;;;16.60;61.90;99459.28;5029494;28;20057;-75
2023/05/17 10:42:52;;;;;;;4.43;2.08;;;;;;;16.48;63.24;99477.50;5029495;28;20091;-68
2023/05/17 10:45:23;;;;;;;11.68;2.30;;;;;;;16.29;64.10;99473.06;5040586;28;20478;-73
2023/05/17 10:47:51;;;;;;;4.68;2.00;;;;;;;16.12;63.35;99459.16;5042885;28;20121;-70
2023/05/17 10:50:25;;;;;;;7.43;2.22;;;;;;;15.73;66.87;99466.59;5032539;28;20739;-78
2023/05/17 10:52:54;;;;;;;5.60;2.05;;;;;;;15.36;63.95;99432.81;5031574;28;20041;-74
2023/05/17 10:55:24;;;;;;;5.07;2.03;;;;;;;15.51;66.94;99464.19;5030918;28;20035;-73
2023/05/17 10:58:21;;;;;;;8.60;2.50;;;;;;;15.32;66.31;99470.56;5012831;28;20117;-75
2023/05/17 11:00:53;;;;;;;3.45;1.70;;;;;;;15.48;66.05;99456.44;5026444;28;20033;-74
2023/05/17 11:03:27;;;;;;;3.58;1.90;;;;;;;15.84;66.20;99476.78;5033575;28;20021;-73
2023/05/17 11:06:12;;;;;;;6.88;2.35;;;;;;;15.74;65.90;99476.44;5024889;28;20514;-74
2023/05/17 11:09:04;;;;;;;6.10;2.45;;;;;;;15.63;68.95;99469.75;5031816;28;20036;-75
2023/05/17 11:11:30;;;;;;;4.95;2.22;;;;;;;16.07;70.31;99459.00;5038379;28;20029;-77
2023/05/17 11:13:56;;;;;;;16.23;3.15;;;;;;;15.90;71.00;99470.47;5042152;28;20121;-74
2023/05/17 11:16:32;;;;;;;5.40;2.30;;;;;;;16.00;69.31;99456.31;5037975;28;20033;-72
2023/05/17 11:19:06;;;;;;;8.18;2.00;;;;;;;16.12;68.03;99475.53;5035633;28;20460;-80
2023/05/17 11:21:32;;;;;;;7.82;2.00;;;;;;;15.91;68.76;99461.22;5033599;28;20025;-72
2023/05/17 11:24:00;;;;;;;5.15;1.92;;;;;;;15.70;65.78;99475.22;5045156;28;20071;-75
2023/05/17 11:26:39;;;;;;;5.75;2.45;;;;;;;15.55;68.14;99473.59;5025599;28;20541;-71
2023/05/17 11:29:11;;;;;;;6.88;2.08;;;;;;;15.72;68.28;99473.94;5039713;28;20048;-72
2023/05/17 11:31:44;;;;;;;4.38;1.90;;;;;;;16.18;68.10;99460.97;5028395;28;20117;-73
2023/05/17 11:34:10;;;;;;;4.15;1.80;;;;;;;16.83;67.12;99466.03;5029400;28;20513;-73